createdAt,value
2023-04-27T00:00:13.769Z,46.29
2023-04-27T00:04:18.236Z,46.46
2023-04-27T00:08:18.630Z,46.32
2023-04-27T00:12:19.110Z,47.03
2023-04-27T00:16:19.310Z,47.00
2023-04-27T00:20:22.445Z,46.87
2023-04-27T00:24:22.723Z,46.80
2023-04-27T00:28:24.510Z,46.79
2023-04-27T00:32:24.756Z,47.32
2023-04-27T00:36:27.649Z,47.23
2023-04-27T00:40:27.780Z,47.36
2023-04-27T00:44:28.353Z,47.78
2023-04-27T00:48:29.958Z,48.13
2023-04-27T00:52:33.409Z,47.54
2023-04-27T00:56:35.324Z,46.86
2023-04-27T01:00:35.938Z,47.07
2023-04-27T01:04:37.243Z,47.35
2023-04-27T01:08:40.181Z,47.08
2023-04-27T01:12:41.300Z,47.28
2023-04-27T01:16:41.486Z,46.88
2023-04-27T01:20:43.643Z,46.42
2023-04-27T01:24:47.208Z,46.75
2023-04-27T01:28:47.672Z,46.72
2023-04-27T01:32:47.930Z,46.98
2023-04-27T01:36:48.670Z,46.95
2023-04-27T01:40:51.652Z,47.14
2023-04-27T01:44:54.700Z,47.30
2023-04-27T01:48:54.850Z,47.13
2023-04-27T01:52:55.035Z,47.27
2023-04-27T01:56:58.867Z,46.73
2023-04-27T02:00:58.946Z,46.48
2023-04-27T02:04:59.169Z,46.76
2023-04-27T02:08:59.568Z,46.90
2023-04-27T02:13:02.287Z,46.84
2023-04-27T02:17:02.568Z,47.21
2023-04-27T02:21:02.938Z,47.47
2023-04-27T02:25:03.839Z,47.57
2023-04-27T02:29:06.657Z,47.38
2023-04-27T02:33:07.368Z,47.68
2023-04-27T02:37:07.799Z,47.64
2023-04-27T02:41:08.237Z,47.87
2023-04-27T02:45:12.534Z,47.52
2023-04-27T02:49:13.068Z,47.66
2023-04-27T02:53:14.616Z,47.73
2023-04-27T02:57:15.071Z,47.72
2023-04-27T03:01:18.718Z,48.09
2023-04-27T03:05:19.067Z,48.08
2023-04-27T03:09:19.344Z,47.73
2023-04-27T03:13:19.634Z,47.68
2023-04-27T03:17:22.404Z,47.84
2023-04-27T03:21:22.703Z,47.44
2023-04-27T03:25:23.328Z,47.48
2023-04-27T03:29:23.811Z,47.98
2023-04-27T03:33:27.232Z,48.09
2023-04-27T03:37:27.552Z,48.46
2023-04-27T03:41:30.174Z,48.61
2023-04-27T03:45:31.392Z,48.89
2023-04-27T03:49:34.104Z,48.40
2023-04-27T03:53:34.275Z,48.67
2023-04-27T03:57:34.868Z,48.53
2023-04-27T04:01:35.334Z,48.53
2023-04-27T04:05:38.177Z,48.96
2023-04-27T04:09:38.563Z,48.67
2023-04-27T04:13:39.431Z,48.66
2023-04-27T04:17:39.737Z,48.75
2023-04-27T04:21:43.324Z,48.75
2023-04-27T04:25:43.579Z,48.25
2023-04-27T04:29:43.836Z,48.29
2023-04-27T04:33:44.420Z,48.15
2023-04-27T04:37:47.377Z,48.02
2023-04-27T04:41:49.392Z,47.86
2023-04-27T04:45:51.123Z,47.44
2023-04-27T04:49:51.618Z,47.37
2023-04-27T04:53:54.372Z,47.00
2023-04-27T04:57:56.486Z,46.71
2023-04-27T05:01:58.194Z,46.66
2023-04-27T05:05:58.384Z,46.63
2023-04-27T05:10:01.295Z,45.80
2023-04-27T05:14:02.019Z,45.36
2023-04-27T05:18:02.238Z,45.17
2023-04-27T05:22:02.836Z,45.11
2023-04-27T05:26:14.515Z,44.58
2023-04-27T05:30:16.719Z,44.66
2023-04-27T05:34:17.030Z,44.10
2023-04-27T05:38:17.995Z,43.89
2023-04-27T05:42:20.803Z,43.55
2023-04-27T05:46:21.344Z,43.29
2023-04-27T05:50:21.669Z,42.69
2023-04-27T05:54:22.363Z,42.64
2023-04-27T05:58:25.623Z,41.98
2023-04-27T06:02:26.267Z,41.50
2023-04-27T06:06:26.538Z,41.62
2023-04-27T06:10:27.205Z,41.42
2023-04-27T06:14:30.145Z,40.33
2023-04-27T06:18:30.696Z,40.17
2023-04-27T06:22:31.012Z,39.79
2023-04-27T06:26:31.436Z,39.10
2023-04-27T06:30:34.544Z,38.75
2023-04-27T06:34:35.352Z,38.82
2023-04-27T06:38:35.523Z,38.61
2023-04-27T06:42:35.728Z,37.60
2023-04-27T06:46:41.072Z,37.87
2023-04-27T06:50:41.480Z,37.24
2023-04-27T06:54:42.328Z,37.21
2023-04-27T06:58:42.545Z,37.30
2023-04-27T07:02:45.350Z,35.76
2023-04-27T07:06:45.758Z,35.62
2023-04-27T07:10:46.358Z,36.02
2023-04-27T07:14:46.762Z,35.66
2023-04-27T07:18:49.492Z,36.18
2023-04-27T07:22:49.703Z,35.34
2023-04-27T07:26:49.903Z,34.47
2023-04-27T07:30:50.741Z,33.83
2023-04-27T07:34:54.500Z,32.49
2023-04-27T07:38:54.825Z,32.20
2023-04-27T07:42:55.299Z,32.58
2023-04-27T07:46:58.708Z,31.26
2023-04-27T07:51:01.695Z,31.27
2023-04-27T07:55:02.208Z,29.82
2023-04-27T07:59:02.712Z,30.46
2023-04-27T08:03:03.137Z,29.96
2023-04-27T08:07:06.846Z,28.94
2023-04-27T08:11:07.323Z,29.10
2023-04-27T08:15:09.975Z,27.81
2023-04-27T08:19:10.115Z,28.35
2023-04-27T08:23:13.273Z,27.61
2023-04-27T08:27:15.665Z,27.65
2023-04-27T08:31:16.095Z,27.41
2023-04-27T08:35:16.426Z,26.80
2023-04-27T08:39:19.271Z,27.37
2023-04-27T08:43:19.500Z,27.58
2023-04-27T08:47:28.164Z,27.10
2023-04-27T08:51:35.953Z,25.71
2023-04-27T08:55:38.951Z,26.06
2023-04-27T08:59:39.241Z,25.38
2023-04-27T09:03:41.497Z,24.56
2023-04-27T09:07:41.745Z,23.51
2023-04-27T09:11:45.431Z,23.19
2023-04-27T09:15:48.658Z,23.07
2023-04-27T09:19:49.079Z,22.28
2023-04-27T09:23:49.280Z,20.90
2023-04-27T09:27:52.099Z,20.69
2023-04-27T09:31:52.292Z,20.67
2023-04-27T09:35:53.342Z,20.10
2023-04-27T09:39:53.612Z,18.92
2023-04-27T09:43:59.773Z,18.58
2023-04-27T09:48:01.303Z,18.35
2023-04-27T09:52:01.770Z,18.12
2023-04-27T09:56:19.513Z,18.79
2023-04-27T10:00:44.756Z,19.01
2023-04-27T10:05:13.729Z,21.34
2023-04-27T10:09:15.091Z,21.29
2023-04-27T10:13:26.464Z,19.96
2023-04-27T10:17:35.125Z,21.16
2023-04-27T10:21:35.465Z,21.01
2023-04-27T10:25:43.153Z,21.41
2023-04-27T10:29:46.295Z,22.42
2023-04-27T10:33:49.130Z,23.34
2023-04-27T10:37:49.403Z,21.79
2023-04-27T10:41:54.529Z,21.39
2023-04-27T10:45:54.751Z,19.66
2023-04-27T10:49:58.681Z,18.60
2023-04-27T10:54:00.186Z,18.09
2023-04-27T10:58:01.702Z,17.62
2023-04-27T11:02:01.936Z,16.63
2023-04-27T11:06:09.748Z,17.16
2023-04-27T11:10:13.230Z,16.98
2023-04-27T11:14:16.643Z,16.99
2023-04-27T11:18:17.885Z,17.14
2023-04-27T11:22:20.892Z,18.18
2023-04-27T11:26:26.743Z,19.33
2023-04-27T11:30:27.792Z,19.83
2023-04-27T11:34:34.510Z,20.56
2023-04-27T11:38:40.388Z,21.11
2023-04-27T11:42:43.605Z,20.86
2023-04-27T11:46:49.774Z,20.90
2023-04-27T11:50:51.028Z,20.80
2023-04-27T11:54:56.981Z,20.34
2023-04-27T11:58:57.332Z,20.80
2023-04-27T12:02:57.743Z,21.73
2023-04-27T12:06:58.291Z,20.97
2023-04-27T12:11:01.208Z,20.66
2023-04-27T12:15:01.911Z,21.68
2023-04-27T12:19:02.139Z,21.85
2023-04-27T12:23:02.329Z,21.08
2023-04-27T12:27:05.534Z,19.16
2023-04-27T12:31:08.540Z,18.27
2023-04-27T12:35:10.655Z,17.67
2023-04-27T12:39:23.947Z,18.18
2023-04-27T12:43:26.907Z,18.26
2023-04-27T12:47:49.778Z,18.43
2023-04-27T12:51:52.139Z,19.21
2023-04-27T12:55:53.666Z,19.70
2023-04-27T12:59:57.719Z,19.46
2023-04-27T13:04:03.468Z,20.06
2023-04-27T13:08:04.950Z,21.82
2023-04-27T13:12:05.198Z,21.35
2023-04-27T13:16:08.767Z,22.21
2023-04-27T13:20:11.971Z,23.61
2023-04-27T13:24:12.549Z,23.46
2023-04-27T13:28:12.785Z,22.88
2023-04-27T13:32:15.697Z,22.41
2023-04-27T13:36:16.508Z,22.54
2023-04-27T13:40:16.978Z,23.31
2023-04-27T13:44:17.234Z,23.01
2023-04-27T13:48:20.021Z,22.82
2023-04-27T13:52:20.440Z,22.07
2023-04-27T13:56:21.221Z,21.67
2023-04-27T14:04:37.389Z,20.91
2023-04-27T14:08:38.212Z,20.81
2023-04-27T14:12:39.126Z,22.17
2023-04-27T14:16:39.334Z,22.23
2023-04-27T14:20:42.552Z,21.07
2023-04-27T14:24:42.754Z,20.19
2023-04-27T14:28:43.544Z,19.99
2023-04-27T14:32:43.793Z,20.67
2023-04-27T14:36:46.701Z,20.41
2023-04-27T14:40:47.099Z,20.24
2023-04-27T14:44:48.707Z,19.03
2023-04-27T14:48:51.565Z,19.79
2023-04-27T14:52:58.130Z,20.03
2023-04-27T14:56:58.970Z,19.98
2023-04-27T15:00:59.264Z,21.00
2023-04-27T15:04:59.589Z,22.30
2023-04-27T15:09:02.880Z,21.74
2023-04-27T15:13:05.265Z,20.37
2023-04-27T15:17:06.724Z,19.93
2023-04-27T15:21:07.584Z,21.12
2023-04-27T15:25:12.041Z,20.63
2023-04-27T15:29:12.593Z,21.22
2023-04-27T15:33:13.347Z,21.15
2023-04-27T15:37:13.889Z,20.83
2023-04-27T15:41:16.908Z,21.94
2023-04-27T15:45:17.309Z,22.29
2023-04-27T15:49:17.637Z,22.78
2023-04-27T15:53:17.829Z,22.94
2023-04-27T15:57:21.202Z,22.91
2023-04-27T16:01:21.794Z,22.86
2023-04-27T16:05:22.448Z,23.43
2023-04-27T16:09:22.944Z,23.22
2023-04-27T16:13:27.369Z,23.93
2023-04-27T16:17:28.075Z,23.37
2023-04-27T16:21:29.251Z,22.90
2023-04-27T16:25:29.409Z,21.41
2023-04-27T16:29:32.383Z,20.22
2023-04-27T16:33:32.602Z,19.46
2023-04-27T16:37:35.686Z,18.55
2023-04-27T16:41:36.090Z,17.06
2023-04-27T16:45:41.897Z,18.41
2023-04-27T16:49:42.426Z,18.83
2023-04-27T16:54:32.048Z,19.28
2023-04-27T16:58:33.638Z,19.37
2023-04-27T17:02:36.925Z,20.52
2023-04-27T17:06:37.584Z,22.15
2023-04-27T17:10:38.764Z,23.08
2023-04-27T17:14:39.796Z,23.98
2023-04-27T17:18:43.154Z,25.05
2023-04-27T17:22:43.404Z,25.19
2023-04-27T17:26:43.588Z,25.81
2023-04-27T17:30:43.791Z,25.94
2023-04-27T17:34:46.837Z,26.44
2023-04-27T17:38:47.393Z,26.36
2023-04-27T17:42:48.175Z,26.73
2023-04-27T17:46:54.106Z,26.83
2023-04-27T17:50:57.494Z,27.84
2023-04-27T17:54:58.597Z,28.23
2023-04-27T17:58:58.730Z,28.75
2023-04-27T18:02:59.347Z,28.36
2023-04-27T18:07:02.524Z,29.14
2023-04-27T18:11:03.166Z,28.96
2023-04-27T18:15:05.535Z,28.85
2023-04-27T18:19:07.265Z,29.44
2023-04-27T18:23:10.428Z,29.73
2023-04-27T18:27:10.686Z,30.61
2023-04-27T18:31:17.519Z,31.20
2023-04-27T18:35:18.053Z,31.79
2023-04-27T18:39:21.003Z,32.38
2023-04-27T18:43:21.265Z,32.90
2023-04-27T18:47:21.708Z,33.91
2023-04-27T18:51:23.258Z,34.35
2023-04-27T18:55:26.371Z,34.78
2023-04-27T18:59:26.812Z,34.75
2023-04-27T19:03:28.017Z,35.39
2023-04-27T19:07:28.909Z,35.83
2023-04-27T19:11:32.384Z,35.88
2023-04-27T19:15:32.884Z,36.31
2023-04-27T19:19:33.542Z,36.60
2023-04-27T19:23:33.987Z,37.05
2023-04-27T19:27:37.044Z,37.27
2023-04-27T19:31:39.881Z,36.97
2023-04-27T19:35:40.276Z,37.26
2023-04-27T19:39:41.344Z,37.55
2023-04-27T19:43:44.413Z,38.91
2023-04-27T19:47:44.739Z,39.23
2023-04-27T19:51:45.379Z,39.13
2023-04-27T19:55:45.554Z,40.15
2023-04-27T19:59:48.614Z,40.54
2023-04-27T20:03:49.158Z,41.11
2023-04-27T20:07:50.194Z,40.84
2023-04-27T20:11:50.368Z,41.30
2023-04-27T20:15:53.682Z,41.95
2023-04-27T20:19:59.352Z,42.17
2023-04-27T20:23:59.816Z,42.34
2023-04-27T20:28:00.179Z,42.72
2023-04-27T20:32:03.235Z,43.56
2023-04-27T20:36:16.208Z,44.24
2023-04-27T20:40:19.198Z,44.05
2023-04-27T20:44:20.943Z,44.01
2023-04-27T20:48:24.204Z,44.61
2023-04-27T20:52:25.410Z,44.73
2023-04-27T20:56:26.332Z,44.52
2023-04-27T21:00:27.048Z,44.66
2023-04-27T21:04:29.958Z,45.64
2023-04-27T21:08:33.896Z,45.10
2023-04-27T21:12:34.238Z,45.73
2023-04-27T21:16:34.536Z,45.75
2023-04-27T21:20:37.637Z,45.98
2023-04-27T21:24:37.917Z,46.09
2023-04-27T21:28:38.172Z,45.87
2023-04-27T21:32:38.349Z,46.25
2023-04-27T21:36:41.214Z,46.76
2023-04-27T21:40:41.521Z,47.08
2023-04-27T21:44:41.826Z,47.62
2023-04-27T21:48:42.124Z,47.60
2023-04-27T21:52:44.986Z,47.86
2023-04-27T21:56:45.430Z,48.00
2023-04-27T22:00:45.942Z,47.48
2023-04-27T22:04:46.298Z,47.37
2023-04-27T22:08:49.526Z,47.67
2023-04-27T22:12:49.801Z,47.31
2023-04-27T22:16:50.336Z,47.46
2023-04-27T22:20:50.666Z,46.99
2023-04-27T22:24:54.067Z,47.36
2023-04-27T22:28:54.286Z,47.53
2023-04-27T22:32:54.916Z,47.11
2023-04-27T22:36:55.999Z,47.08
2023-04-27T22:40:59.226Z,46.67
2023-04-27T22:44:59.356Z,47.17
2023-04-27T22:49:01.676Z,47.11
2023-04-27T22:53:02.259Z,47.03
2023-04-27T22:57:05.339Z,47.15
2023-04-27T23:01:06.296Z,46.70
2023-04-27T23:05:07.268Z,47.90
2023-04-27T23:09:07.597Z,48.01
2023-04-27T23:13:10.960Z,47.97
2023-04-27T23:17:12.163Z,48.47
2023-04-27T23:21:13.276Z,48.00
2023-04-27T23:25:14.015Z,47.71
2023-04-27T23:29:16.930Z,47.64
2023-04-27T23:33:17.222Z,48.25
2023-04-27T23:37:17.503Z,47.95
2023-04-27T23:41:17.730Z,48.23
2023-04-27T23:45:20.741Z,47.61
2023-04-27T23:49:20.896Z,47.81
2023-04-27T23:53:21.129Z,48.04
2023-04-27T23:57:21.251Z,47.73
